Time;durP1;ratioP1;P1;durP2;ratioP2;P2;SDS_P1;SDS_P2;PMS_P1;PMS_P2;Temp;Humidity;BMP_temperature;BMP_pressure;BME280_temperature;BME280_humidity;BME280_pressure;Samples;Min_cycle;Max_cycle;Signal;HPM_P1;HPM_P2
2022/12/18 00:01:21;;;;;;;0.50;0.50;;;;;;;;;;5064297;28;20248;-65
2022/12/18 00:03:48;;;;;;;0.77;0.77;;;;;;;;;;5071910;28;20268;-65
2022/12/18 00:06:16;;;;;;;2.87;2.77;;;;;;;;;;5064061;28;20263;-65
2022/12/18 00:08:42;;;;;;;0.87;0.87;;;;;;;;;;5072310;28;20205;-65
2022/12/18 00:11:11;;;;;;;0.50;0.50;;;;;;;;;;5063179;28;20247;-65
2022/12/18 00:13:37;;;;;;;1.20;1.20;;;;;;;;;;5072367;28;20203;-65
2022/12/18 00:16:04;;;;;;;1.67;1.67;;;;;;;;;;5062581;28;20259;-65
2022/12/18 00:18:31;;;;;;;1.73;1.73;;;;;;;;;;5073269;28;20278;-65
2022/12/18 00:20:59;;;;;;;0.50;0.50;;;;;;;;;;5061757;28;20584;-65
2022/12/18 00:23:27;;;;;;;0.53;0.53;;;;;;;;;;5074068;28;20264;-66
2022/12/18 00:25:54;;;;;;;0.50;0.50;;;;;;;;;;5061236;28;20303;-66
2022/12/18 00:28:20;;;;;;;2.00;2.00;;;;;;;;;;5074288;28;20225;-66
2022/12/18 00:30:46;;;;;;;0.50;0.50;;;;;;;;;;5060206;28;20672;-66
2022/12/18 00:33:13;;;;;;;0.60;0.60;;;;;;;;;;5075641;28;20388;-66
2022/12/18 00:35:39;;;;;;;1.67;1.67;;;;;;;;;;5059253;28;20271;-65
2022/12/18 00:38:06;;;;;;;0.50;0.50;;;;;;;;;;5076504;28;20247;-66
2022/12/18 00:40:33;;;;;;;0.50;0.50;;;;;;;;;;5058181;28;20255;-66
2022/12/18 00:42:59;;;;;;;2.70;2.60;;;;;;;;;;5077136;28;20440;-66
2022/12/18 00:45:26;;;;;;;5.93;5.63;;;;;;;;;;5057175;28;20206;-66
2022/12/18 00:47:52;;;;;;;1.70;1.70;;;;;;;;;;5078051;28;20567;-65
2022/12/18 00:50:19;;;;;;;0.50;0.50;;;;;;;;;;5056203;28;20246;-65
2022/12/18 00:52:45;;;;;;;0.50;0.50;;;;;;;;;;5078681;28;20282;-65
2022/12/18 00:55:11;;;;;;;0.50;0.50;;;;;;;;;;5055189;28;20279;-66
2022/12/18 00:57:39;;;;;;;0.50;0.50;;;;;;;;;;5079722;28;20376;-65
2022/12/18 01:00:07;;;;;;;0.80;0.80;;;;;;;;;;5064449;28;20216;-65
2022/12/18 01:02:33;;;;;;;0.60;0.60;;;;;;;;;;5053132;28;20251;-66
2022/12/18 01:05:00;;;;;;;1.33;1.33;;;;;;;;;;5064844;28;20520;-66
2022/12/18 01:07:26;;;;;;;0.50;0.50;;;;;;;;;;5069715;28;20299;-67
2022/12/18 01:09:52;;;;;;;0.50;0.50;;;;;;;;;;5064726;28;20494;-65
2022/12/18 01:12:19;;;;;;;0.50;0.50;;;;;;;;;;5069663;28;20252;-65
2022/12/18 01:14:46;;;;;;;0.50;0.50;;;;;;;;;;5064518;28;20236;-65
2022/12/18 01:17:13;;;;;;;0.70;0.70;;;;;;;;;;5069432;28;20235;-66
2022/12/18 01:19:39;;;;;;;0.50;0.50;;;;;;;;;;5064384;28;20281;-65
2022/12/18 01:22:06;;;;;;;1.03;1.03;;;;;;;;;;5069390;28;20485;-65
2022/12/18 01:24:32;;;;;;;1.40;1.40;;;;;;;;;;5064410;28;20210;-66
2022/12/18 01:26:58;;;;;;;0.50;0.50;;;;;;;;;;5068105;28;20294;-66
2022/12/18 01:29:25;;;;;;;0.50;0.50;;;;;;;;;;5065314;28;20250;-66
2022/12/18 01:31:55;;;;;;;0.50;0.50;;;;;;;;;;5067258;28;20439;-66
2022/12/18 01:34:21;;;;;;;0.50;0.50;;;;;;;;;;5065792;28;20525;-65
2022/12/18 01:36:48;;;;;;;0.83;0.83;;;;;;;;;;5066777;28;20320;-66
2022/12/18 01:39:15;;;;;;;0.77;0.77;;;;;;;;;;5066037;28;20212;-65
2022/12/18 01:44:45;;;;;;;0.50;0.50;;;;;;;;;;5064815;28;20501;-67
2022/12/18 01:47:15;;;;;;;0.60;0.60;;;;;;;;;;5069085;28;20251;-65
2022/12/18 01:49:41;;;;;;;0.50;0.50;;;;;;;;;;5063664;28;20281;-65
2022/12/18 01:52:08;;;;;;;0.77;0.77;;;;;;;;;;5069089;28;20240;-65
2022/12/18 01:54:34;;;;;;;0.80;0.80;;;;;;;;;;5063973;28;20206;-65
2022/12/18 01:57:01;;;;;;;1.60;1.57;;;;;;;;;;5068137;28;20313;-65
2022/12/18 01:59:28;;;;;;;0.50;0.50;;;;;;;;;;5064699;28;20226;-66
2022/12/18 02:01:55;;;;;;;0.53;0.53;;;;;;;;;;5067206;28;20236;-66
2022/12/18 02:04:23;;;;;;;1.27;1.27;;;;;;;;;;5065205;28;20204;-66
2022/12/18 02:06:52;;;;;;;0.50;0.50;;;;;;;;;;5066805;28;20441;-66
2022/12/18 02:09:21;;;;;;;2.53;1.90;;;;;;;;;;5065371;28;20276;-66
2022/12/18 02:11:51;;;;;;;0.83;0.83;;;;;;;;;;5066292;28;20269;-65
2022/12/18 02:14:23;;;;;;;1.10;1.00;;;;;;;;;;5065365;28;20217;-66
2022/12/18 02:16:53;;;;;;;1.27;1.27;;;;;;;;;;5066356;28;20314;-66
2022/12/18 02:19:40;;;;;;;0.63;0.63;;;;;;;;;;5065355;28;20236;-65
2022/12/18 02:22:10;;;;;;;0.60;0.60;;;;;;;;;;5068673;28;20446;-66
2022/12/18 02:24:39;;;;;;;0.53;0.53;;;;;;;;;;5063522;28;20461;-66
2022/12/18 02:27:08;;;;;;;0.50;0.50;;;;;;;;;;5068505;28;20301;-65
2022/12/18 02:29:38;;;;;;;6.63;6.03;;;;;;;;;;5063688;28;20417;-66
2022/12/18 02:32:07;;;;;;;3.17;3.03;;;;;;;;;;5068211;28;20305;-65
2022/12/18 02:34:35;;;;;;;0.70;0.70;;;;;;;;;;5063517;28;20276;-66
2022/12/18 02:37:03;;;;;;;1.63;1.63;;;;;;;;;;5067764;28;20241;-65
2022/12/18 02:39:30;;;;;;;0.60;0.60;;;;;;;;;;5063822;28;20203;-65
2022/12/18 02:41:57;;;;;;;0.50;0.50;;;;;;;;;;5067204;28;20251;-66
2022/12/18 02:44:25;;;;;;;2.67;2.50;;;;;;;;;;5064661;28;20242;-65
2022/12/18 02:46:52;;;;;;;0.50;0.50;;;;;;;;;;5066333;28;20310;-65
2022/12/18 02:49:25;;;;;;;0.50;0.50;;;;;;;;;;5064850;28;20204;-66
2022/12/18 02:51:52;;;;;;;1.33;1.33;;;;;;;;;;5068294;28;20881;-65
2022/12/18 02:54:22;;;;;;;0.50;0.50;;;;;;;;;;5068933;28;20271;-65
2022/12/18 02:56:51;;;;;;;0.57;0.57;;;;;;;;;;5069768;28;20576;-65
2022/12/18 02:59:22;;;;;;;0.50;0.50;;;;;;;;;;5068997;28;20232;-65
2022/12/18 03:01:52;;;;;;;0.50;0.50;;;;;;;;;;5069678;28;20318;-65
2022/12/18 03:04:21;;;;;;;1.10;1.10;;;;;;;;;;5068669;28;20215;-65
2022/12/18 03:06:49;;;;;;;0.50;0.50;;;;;;;;;;5069388;28;20239;-65
2022/12/18 03:09:18;;;;;;;0.50;0.50;;;;;;;;;;5068885;28;20446;-65
2022/12/18 03:14:32;;;;;;;0.80;0.80;;;;;;;;;;5066777;28;20202;-65
2022/12/18 03:17:02;;;;;;;0.60;0.60;;;;;;;;;;5070741;28;20622;-65
2022/12/18 03:19:30;;;;;;;3.80;3.60;;;;;;;;;;5067184;28;20264;-66
2022/12/18 03:21:58;;;;;;;0.50;0.50;;;;;;;;;;5070323;28;20636;-66
2022/12/18 03:24:25;;;;;;;0.50;0.50;;;;;;;;;;5067563;28;20206;-66
2022/12/18 03:26:53;;;;;;;1.20;1.17;;;;;;;;;;5069536;28;20303;-66
2022/12/18 03:29:21;;;;;;;0.80;0.80;;;;;;;;;;5068244;28;20313;-66
2022/12/18 03:31:50;;;;;;;0.50;0.50;;;;;;;;;;5069012;28;20239;-65
2022/12/18 03:34:20;;;;;;;0.50;0.50;;;;;;;;;;5068519;28;20438;-66
2022/12/18 03:36:46;;;;;;;0.63;0.63;;;;;;;;;;5068770;28;20239;-66
2022/12/18 03:39:12;;;;;;;0.70;0.70;;;;;;;;;;5068779;28;20228;-66
2022/12/18 03:41:42;;;;;;;1.73;1.63;;;;;;;;;;5067802;28;20246;-66
2022/12/18 03:44:12;;;;;;;0.50;0.50;;;;;;;;;;5069078;28;20209;-65
2022/12/18 03:46:41;;;;;;;3.37;3.27;;;;;;;;;;5067583;28;20243;-66
2022/12/18 03:49:11;;;;;;;1.03;1.03;;;;;;;;;;5069193;28;20228;-64
2022/12/18 03:51:41;;;;;;;4.10;3.80;;;;;;;;;;5067259;28;20605;-65
2022/12/18 03:54:08;;;;;;;0.60;0.60;;;;;;;;;;5069157;28;20215;-65
2022/12/18 03:56:38;;;;;;;0.50;0.50;;;;;;;;;;5066788;28;20245;-65
2022/12/18 03:59:05;;;;;;;0.60;0.60;;;;;;;;;;5069636;28;20275;-65
2022/12/18 04:01:33;;;;;;;0.50;0.50;;;;;;;;;;5066170;28;20252;-65
2022/12/18 04:04:01;;;;;;;0.50;0.50;;;;;;;;;;5070013;28;20271;-65
2022/12/18 04:06:27;;;;;;;0.60;0.60;;;;;;;;;;5065724;28;20255;-65
2022/12/18 04:08:55;;;;;;;0.60;0.60;;;;;;;;;;5070508;28;20295;-65
2022/12/18 04:11:22;;;;;;;0.50;0.50;;;;;;;;;;5064983;28;20464;-66
2022/12/18 04:13:48;;;;;;;0.50;0.50;;;;;;;;;;5071438;28;20206;-65
2022/12/18 04:16:14;;;;;;;0.60;0.60;;;;;;;;;;5063874;28;20376;-65
2022/12/18 04:18:41;;;;;;;0.60;0.60;;;;;;;;;;5072268;28;20201;-66
2022/12/18 04:21:07;;;;;;;0.60;0.60;;;;;;;;;;5062820;28;20258;-66
2022/12/18 04:23:34;;;;;;;0.50;0.50;;;;;;;;;;5073215;28;20237;-66
2022/12/18 04:26:01;;;;;;;0.50;0.50;;;;;;;;;;5062133;28;20247;-66
2022/12/18 04:28:28;;;;;;;0.80;0.80;;;;;;;;;;5073433;28;20235;-66
2022/12/18 04:30:54;;;;;;;0.60;0.60;;;;;;;;;;5061132;28;20255;-66
2022/12/18 04:33:20;;;;;;;0.50;0.50;;;;;;;;;;5074532;28;20221;-66
2022/12/18 04:35:47;;;;;;;0.60;0.60;;;;;;;;;;5060210;28;20281;-70
2022/12/18 04:38:13;;;;;;;0.50;0.50;;;;;;;;;;5075250;28;20199;-66
2022/12/18 04:40:40;;;;;;;1.23;1.23;;;;;;;;;;5059200;28;20298;-66
2022/12/18 04:43:08;;;;;;;0.50;0.50;;;;;;;;;;5076068;28;20224;-66
2022/12/18 04:45:34;;;;;;;1.40;1.30;;;;;;;;;;5058222;28;20420;-66
2022/12/18 04:48:01;;;;;;;0.60;0.60;;;;;;;;;;5076833;28;20542;-66
2022/12/18 04:50:27;;;;;;;0.50;0.50;;;;;;;;;;5057444;28;20540;-66
2022/12/18 04:52:54;;;;;;;0.60;0.60;;;;;;;;;;5077447;28;20212;-66
2022/12/18 04:55:20;;;;;;;0.50;0.50;;;;;;;;;;5055093;28;20235;-66
2022/12/18 04:57:46;;;;;;;0.50;0.50;;;;;;;;;;5079567;28;20267;-66
2022/12/18 05:00:15;;;;;;;0.60;0.60;;;;;;;;;;5055153;28;20495;-64
2022/12/18 05:02:41;;;;;;;0.60;0.60;;;;;;;;;;5079029;28;20227;-65
2022/12/18 05:05:08;;;;;;;0.50;0.50;;;;;;;;;;5058087;28;20206;-65
2022/12/18 05:07:34;;;;;;;0.50;0.50;;;;;;;;;;5079756;28;20466;-65
2022/12/18 05:10:01;;;;;;;0.50;0.50;;;;;;;;;;5064564;28;20275;-66
2022/12/18 05:12:27;;;;;;;0.50;0.50;;;;;;;;;;5069585;28;20661;-65
2022/12/18 05:14:53;;;;;;;0.50;0.50;;;;;;;;;;5063891;28;20412;-65
2022/12/18 05:17:21;;;;;;;0.53;0.53;;;;;;;;;;5069536;28;20310;-65
2022/12/18 05:19:48;;;;;;;6.40;3.40;;;;;;;;;;5064085;28;20234;-65
2022/12/18 05:22:14;;;;;;;0.70;0.70;;;;;;;;;;5069397;28;20513;-65
2022/12/18 05:24:40;;;;;;;0.50;0.50;;;;;;;;;;5064431;28;20236;-65
2022/12/18 05:27:07;;;;;;;0.60;0.60;;;;;;;;;;5069298;28;20267;-65
2022/12/18 05:29:33;;;;;;;1.00;1.00;;;;;;;;;;5064101;28;20303;-65
2022/12/18 05:32:00;;;;;;;0.80;0.80;;;;;;;;;;5068182;28;20601;-64
2022/12/18 05:34:27;;;;;;;0.60;0.60;;;;;;;;;;5064931;28;20242;-65
2022/12/18 05:36:54;;;;;;;0.60;0.60;;;;;;;;;;5067399;28;20259;-64
2022/12/18 05:39:20;;;;;;;0.60;0.60;;;;;;;;;;5065624;28;20267;-65
2022/12/18 05:41:46;;;;;;;0.60;0.60;;;;;;;;;;5066400;28;20243;-65
2022/12/18 05:44:13;;;;;;;1.13;1.13;;;;;;;;;;5066569;28;20204;-65
2022/12/18 05:46:42;;;;;;;0.60;0.60;;;;;;;;;;5065406;28;20258;-65
2022/12/18 05:49:09;;;;;;;0.60;0.60;;;;;;;;;;5067135;28;20256;-67
2022/12/18 05:51:36;;;;;;;1.27;1.27;;;;;;;;;;5064623;28;20239;-65
2022/12/18 05:54:03;;;;;;;0.70;0.70;;;;;;;;;;5067740;28;20207;-65
2022/12/18 05:56:29;;;;;;;0.57;0.57;;;;;;;;;;5064162;28;20251;-65
2022/12/18 05:58:55;;;;;;;0.60;0.60;;;;;;;;;;5068722;28;20323;-65
2022/12/18 06:01:23;;;;;;;1.03;1.03;;;;;;;;;;5062837;28;20306;-65
2022/12/18 06:03:50;;;;;;;1.17;1.17;;;;;;;;;;5069415;28;20235;-65
2022/12/18 06:06:17;;;;;;;3.13;3.03;;;;;;;;;;5062291;28;20251;-64
2022/12/18 06:08:45;;;;;;;0.60;0.60;;;;;;;;;;5069888;28;20235;-65
2022/12/18 06:11:12;;;;;;;0.70;0.70;;;;;;;;;;5061539;28;20310;-65
2022/12/18 06:13:38;;;;;;;0.60;0.60;;;;;;;;;;5070518;28;20196;-65
2022/12/18 06:16:05;;;;;;;0.60;0.60;;;;;;;;;;5060623;28;20246;-65
2022/12/18 06:18:31;;;;;;;0.60;0.60;;;;;;;;;;5071740;28;20399;-65
2022/12/18 06:20:59;;;;;;;1.13;1.13;;;;;;;;;;5059885;28;20240;-65
2022/12/18 06:23:25;;;;;;;0.60;0.60;;;;;;;;;;5072241;28;20271;-66
2022/12/18 06:25:53;;;;;;;0.87;0.87;;;;;;;;;;5061080;28;20306;-65
2022/12/18 06:28:19;;;;;;;0.70;0.70;;;;;;;;;;5077312;28;20229;-65
2022/12/18 06:30:46;;;;;;;0.60;0.60;;;;;;;;;;5062347;28;20282;-66
2022/12/18 06:33:13;;;;;;;0.60;0.60;;;;;;;;;;5078097;28;20192;-66
2022/12/18 06:35:39;;;;;;;1.77;1.77;;;;;;;;;;5061411;28;20255;-65
2022/12/18 06:38:05;;;;;;;0.60;0.60;;;;;;;;;;5078895;28;20535;-66
2022/12/18 06:40:32;;;;;;;0.80;0.80;;;;;;;;;;5060513;28;20263;-66
2022/12/18 06:42:59;;;;;;;0.90;0.90;;;;;;;;;;5079495;28;20260;-67
2022/12/18 06:45:26;;;;;;;0.60;0.60;;;;;;;;;;5059543;28;20275;-66
2022/12/18 06:47:52;;;;;;;0.60;0.60;;;;;;;;;;5080084;28;20225;-66
2022/12/18 06:50:19;;;;;;;1.00;1.00;;;;;;;;;;5058394;28;20262;-66
2022/12/18 06:52:48;;;;;;;0.60;0.60;;;;;;;;;;5080932;28;20591;-66
2022/12/18 06:55:14;;;;;;;0.60;0.60;;;;;;;;;;5057648;28;20279;-65
2022/12/18 06:57:40;;;;;;;0.60;0.60;;;;;;;;;;5081562;28;20185;-66
2022/12/18 07:00:08;;;;;;;0.67;0.67;;;;;;;;;;5066117;28;20239;-66
2022/12/18 07:02:35;;;;;;;0.60;0.60;;;;;;;;;;5082353;28;20496;-65
2022/12/18 07:05:02;;;;;;;0.83;0.83;;;;;;;;;;5067121;28;20274;-65
2022/12/18 07:07:28;;;;;;;0.57;0.57;;;;;;;;;;5071945;28;20258;-65
2022/12/18 07:09:54;;;;;;;0.60;0.60;;;;;;;;;;5066490;28;20295;-66
2022/12/18 07:12:21;;;;;;;0.50;0.50;;;;;;;;;;5071955;28;20285;-65
2022/12/18 07:14:47;;;;;;;0.60;0.60;;;;;;;;;;5066637;28;20231;-65
2022/12/18 07:17:15;;;;;;;0.50;0.50;;;;;;;;;;5071771;28;20321;-65
2022/12/18 07:19:41;;;;;;;0.60;0.60;;;;;;;;;;5066736;28;20510;-65
2022/12/18 07:22:07;;;;;;;0.53;0.53;;;;;;;;;;5071749;28;20460;-65
2022/12/18 07:24:34;;;;;;;0.60;0.60;;;;;;;;;;5066194;28;20205;-65
2022/12/18 07:27:00;;;;;;;0.60;0.60;;;;;;;;;;5070624;28;20290;-65
2022/12/18 07:29:27;;;;;;;0.60;0.60;;;;;;;;;;5067340;28;20580;-65
2022/12/18 07:31:53;;;;;;;0.60;0.60;;;;;;;;;;5069707;28;20310;-65
2022/12/18 07:34:21;;;;;;;0.50;0.50;;;;;;;;;;5068004;28;20331;-65
2022/12/18 07:36:47;;;;;;;0.60;0.60;;;;;;;;;;5067943;28;20246;-65
2022/12/18 07:39:14;;;;;;;0.50;0.50;;;;;;;;;;5068537;28;20269;-65
2022/12/18 07:41:45;;;;;;;0.60;0.60;;;;;;;;;;5067770;28;20250;-65
2022/12/18 07:44:11;;;;;;;0.50;0.50;;;;;;;;;;5068834;28;20235;-65
2022/12/18 07:46:38;;;;;;;0.50;0.50;;;;;;;;;;5067555;28;20311;-65
2022/12/18 07:49:04;;;;;;;0.50;0.50;;;;;;;;;;5069645;28;20229;-66
2022/12/18 07:51:35;;;;;;;0.97;0.97;;;;;;;;;;5066311;28;20262;-65
2022/12/18 07:54:01;;;;;;;1.37;1.37;;;;;;;;;;5070347;28;20287;-65
2022/12/18 07:56:28;;;;;;;0.50;0.50;;;;;;;;;;5065997;28;20263;-66
2022/12/18 07:58:54;;;;;;;0.50;0.50;;;;;;;;;;5070448;28;20231;-66
2022/12/18 08:01:21;;;;;;;0.60;0.60;;;;;;;;;;5064875;28;20312;-66
2022/12/18 08:03:47;;;;;;;0.60;0.60;;;;;;;;;;5071753;28;20626;-66
2022/12/18 08:06:13;;;;;;;0.60;0.60;;;;;;;;;;5063911;28;20265;-66
2022/12/18 08:08:42;;;;;;;0.60;0.60;;;;;;;;;;5072237;28;20301;-66
2022/12/18 08:11:08;;;;;;;0.77;0.77;;;;;;;;;;5063266;28;20566;-66
2022/12/18 08:13:34;;;;;;;0.50;0.50;;;;;;;;;;5073012;28;20209;-65
2022/12/18 08:16:02;;;;;;;0.53;0.53;;;;;;;;;;5062038;28;20256;-66
2022/12/18 08:18:28;;;;;;;0.50;0.50;;;;;;;;;;5073650;28;20275;-66
2022/12/18 08:20:55;;;;;;;0.50;0.50;;;;;;;;;;5061332;28;20311;-65
2022/12/18 08:23:22;;;;;;;0.50;0.50;;;;;;;;;;5074448;28;20271;-66
2022/12/18 08:25:49;;;;;;;0.60;0.60;;;;;;;;;;5060459;28;20309;-65
2022/12/18 08:28:19;;;;;;;0.50;0.50;;;;;;;;;;5074962;28;20237;-66
2022/12/18 08:30:45;;;;;;;0.60;0.60;;;;;;;;;;5059974;28;20251;-66
2022/12/18 08:33:12;;;;;;;0.50;0.50;;;;;;;;;;5075646;28;20503;-66
2022/12/18 08:35:38;;;;;;;0.50;0.50;;;;;;;;;;5058759;28;20239;-65
2022/12/18 08:38:05;;;;;;;1.33;1.33;;;;;;;;;;5076627;28;20215;-65
2022/12/18 08:40:31;;;;;;;0.50;0.50;;;;;;;;;;5058169;28;20322;-66
2022/12/18 08:45:43;;;;;;;0.60;0.60;;;;;;;;;;5059590;28;20312;-66
2022/12/18 08:48:09;;;;;;;0.50;0.50;;;;;;;;;;5075515;28;20278;-66
2022/12/18 08:50:36;;;;;;;0.50;0.50;;;;;;;;;;5058166;28;20487;-66
2022/12/18 08:53:02;;;;;;;3.97;1.93;;;;;;;;;;5076419;28;20281;-66
2022/12/18 08:55:29;;;;;;;0.40;0.40;;;;;;;;;;5057559;28;20243;-67
2022/12/18 08:57:55;;;;;;;0.43;0.43;;;;;;;;;;5077601;28;20195;-67
2022/12/18 09:00:26;;;;;;;0.40;0.40;;;;;;;;;;5056485;28;20250;-66
2022/12/18 09:02:52;;;;;;;0.40;0.40;;;;;;;;;;5078347;28;20253;-66
2022/12/18 09:05:18;;;;;;;0.30;0.30;;;;;;;;;;5056162;28;20235;-66
2022/12/18 09:07:45;;;;;;;3.87;3.70;;;;;;;;;;5078813;28;20260;-66
2022/12/18 09:10:11;;;;;;;0.33;0.33;;;;;;;;;;5054816;28;20599;-66
2022/12/18 09:12:37;;;;;;;0.30;0.30;;;;;;;;;;5079798;28;20193;-66
2022/12/18 09:15:04;;;;;;;0.20;0.20;;;;;;;;;;5064508;28;20281;-66
2022/12/18 09:17:32;;;;;;;0.20;0.20;;;;;;;;;;5069705;28;20305;-66
2022/12/18 09:19:58;;;;;;;0.20;0.20;;;;;;;;;;5064483;28;20250;-66
2022/12/18 09:22:25;;;;;;;0.20;0.20;;;;;;;;;;5069556;28;20488;-66
2022/12/18 09:24:53;;;;;;;0.20;0.20;;;;;;;;;;5064030;28;20203;-66
2022/12/18 09:27:24;;;;;;;0.30;0.30;;;;;;;;;;5069500;28;20308;-66
2022/12/18 09:29:52;;;;;;;0.20;0.20;;;;;;;;;;5064106;28;20604;-67
2022/12/18 09:32:18;;;;;;;0.30;0.30;;;;;;;;;;5069318;28;20301;-67
2022/12/18 09:34:46;;;;;;;1.30;1.17;;;;;;;;;;5064081;28;20237;-67
2022/12/18 09:37:12;;;;;;;0.40;0.40;;;;;;;;;;5069560;28;20248;-67
2022/12/18 09:39:39;;;;;;;0.20;0.20;;;;;;;;;;5063817;28;20202;-66
2022/12/18 09:42:06;;;;;;;0.30;0.30;;;;;;;;;;5068967;28;20264;-68
2022/12/18 09:44:35;;;;;;;0.20;0.20;;;;;;;;;;5064186;28;20213;-66
2022/12/18 09:47:08;;;;;;;0.30;0.30;;;;;;;;;;5068265;28;20310;-67
2022/12/18 09:49:37;;;;;;;0.20;0.20;;;;;;;;;;5064126;28;20294;-67
2022/12/18 09:52:09;;;;;;;0.87;0.87;;;;;;;;;;5068545;28;20239;-68
2022/12/18 09:54:38;;;;;;;1.57;1.53;;;;;;;;;;5063848;28;20521;-67
2022/12/18 09:57:06;;;;;;;2.27;0.80;;;;;;;;;;5068645;28;20261;-68
2022/12/18 09:59:36;;;;;;;0.20;0.20;;;;;;;;;;5063499;28;20548;-67
2022/12/18 10:02:12;;;;;;;0.20;0.20;;;;;;;;;;5068237;28;20245;-68
2022/12/18 10:04:39;;;;;;;0.10;0.10;;;;;;;;;;5063959;28;20281;-68
2022/12/18 10:07:10;;;;;;;0.20;0.20;;;;;;;;;;5068659;28;20239;-68
2022/12/18 10:09:39;;;;;;;0.20;0.20;;;;;;;;;;5063824;28;20326;-68
2022/12/18 10:12:09;;;;;;;0.10;0.10;;;;;;;;;;5069087;28;20351;-68
2022/12/18 10:14:43;;;;;;;0.20;0.20;;;;;;;;;;5063610;28;20493;-68
2022/12/18 10:17:15;;;;;;;0.20;0.20;;;;;;;;;;5068937;28;20237;-66
2022/12/18 10:19:48;;;;;;;0.10;0.10;;;;;;;;;;5063750;28;20503;-66
2022/12/18 10:22:22;;;;;;;0.10;0.10;;;;;;;;;;5069242;28;20451;-66
2022/12/18 10:24:56;;;;;;;0.20;0.20;;;;;;;;;;5063998;28;20240;-67
2022/12/18 10:27:24;;;;;;;0.10;0.10;;;;;;;;;;5069228;28;20241;-67
2022/12/18 10:29:50;;;;;;;0.20;0.20;;;;;;;;;;5063634;28;20253;-67
2022/12/18 10:32:17;;;;;;;0.10;0.10;;;;;;;;;;5068714;28;20325;-66
2022/12/18 10:34:47;;;;;;;0.10;0.10;;;;;;;;;;5063600;28;20207;-67
2022/12/18 10:37:16;;;;;;;0.10;0.10;;;;;;;;;;5068646;28;20240;-67
2022/12/18 10:39:44;;;;;;;0.17;0.17;;;;;;;;;;5063595;28;20343;-67
2022/12/18 10:42:12;;;;;;;0.10;0.10;;;;;;;;;;5068610;28;20489;-67
2022/12/18 10:44:39;;;;;;;0.10;0.10;;;;;;;;;;5063493;28;20273;-66
2022/12/18 10:47:07;;;;;;;0.10;0.10;;;;;;;;;;5068317;28;20273;-67
2022/12/18 10:49:34;;;;;;;0.10;0.10;;;;;;;;;;5063422;28;20613;-66
2022/12/18 10:52:09;;;;;;;0.10;0.10;;;;;;;;;;5066778;28;20264;-67
2022/12/18 10:54:35;;;;;;;0.10;0.10;;;;;;;;;;5063531;28;20275;-67
2022/12/18 10:57:16;;;;;;;0.10;0.10;;;;;;;;;;5067611;28;20306;-68
2022/12/18 10:59:50;;;;;;;0.10;0.10;;;;;;;;;;5063418;28;20227;-67
2022/12/18 11:02:26;;;;;;;0.10;0.10;;;;;;;;;;5068458;28;20308;-67
2022/12/18 11:04:52;;;;;;;0.10;0.10;;;;;;;;;;5062984;28;20245;-67
2022/12/18 11:07:19;;;;;;;0.10;0.10;;;;;;;;;;5068373;28;20280;-66
2022/12/18 11:10:00;;;;;;;0.10;0.10;;;;;;;;;;5063295;28;20465;-67
2022/12/18 11:12:29;;;;;;;0.10;0.10;;;;;;;;;;5069792;28;20312;-68
2022/12/18 11:14:59;;;;;;;0.10;0.10;;;;;;;;;;5066939;28;20242;-68
2022/12/18 11:17:28;;;;;;;0.10;0.10;;;;;;;;;;5071922;28;20551;-67
2022/12/18 11:19:58;;;;;;;1.30;1.30;;;;;;;;;;5066279;28;20200;-68
2022/12/18 11:22:27;;;;;;;0.10;0.10;;;;;;;;;;5071752;28;20263;-67
2022/12/18 11:24:55;;;;;;;0.10;0.10;;;;;;;;;;5066661;28;20219;-68
2022/12/18 11:27:22;;;;;;;0.10;0.10;;;;;;;;;;5071934;28;20409;-67
2022/12/18 11:29:50;;;;;;;0.20;0.20;;;;;;;;;;5066661;28;20228;-67
2022/12/18 11:32:32;;;;;;;0.50;0.50;;;;;;;;;;5071696;28;20634;-67
2022/12/18 11:35:01;;;;;;;0.10;0.10;;;;;;;;;;5066328;28;20210;-68
2022/12/18 11:37:28;;;;;;;0.20;0.20;;;;;;;;;;5071542;28;20242;-67
2022/12/18 11:39:59;;;;;;;0.33;0.33;;;;;;;;;;5066462;28;20272;-67
2022/12/18 11:42:28;;;;;;;0.20;0.20;;;;;;;;;;5071502;28;20247;-68
2022/12/18 11:44:59;;;;;;;0.20;0.20;;;;;;;;;;5066160;28;20214;-67
2022/12/18 11:47:29;;;;;;;0.20;0.20;;;;;;;;;;5071408;28;20545;-67
2022/12/18 11:49:56;;;;;;;0.73;0.73;;;;;;;;;;5066307;28;20544;-67
2022/12/18 11:52:24;;;;;;;1.07;1.07;;;;;;;;;;5071145;28;20251;-67
2022/12/18 11:54:56;;;;;;;0.20;0.20;;;;;;;;;;5066214;28;20368;-67
2022/12/18 11:57:30;;;;;;;0.20;0.20;;;;;;;;;;5071228;28;20240;-68
2022/12/18 12:00:03;;;;;;;0.40;0.40;;;;;;;;;;5066108;28;20301;-67
2022/12/18 12:02:38;;;;;;;0.50;0.50;;;;;;;;;;5071034;28;20251;-67
2022/12/18 12:05:18;;;;;;;0.20;0.20;;;;;;;;;;5065999;28;20212;-67
2022/12/18 12:07:48;;;;;;;0.20;0.20;;;;;;;;;;5065529;28;20197;-67
2022/12/18 12:10:22;;;;;;;1.50;1.50;;;;;;;;;;5056105;28;20587;-66
2022/12/18 12:12:53;;;;;;;0.20;0.20;;;;;;;;;;5079144;28;20252;-66
2022/12/18 12:15:28;;;;;;;0.20;0.20;;;;;;;;;;5056968;28;20247;-66
2022/12/18 12:17:56;;;;;;;0.20;0.20;;;;;;;;;;5078426;28;20286;-66
2022/12/18 12:20:27;;;;;;;3.47;3.20;;;;;;;;;;5057344;28;20268;-67
2022/12/18 12:22:56;;;;;;;0.20;0.20;;;;;;;;;;5077897;28;20200;-67
2022/12/18 12:25:29;;;;;;;0.20;0.20;;;;;;;;;;5057221;28;20235;-67
2022/12/18 12:28:00;;;;;;;0.20;0.20;;;;;;;;;;5077955;28;20262;-67
2022/12/18 12:30:32;;;;;;;0.20;0.20;;;;;;;;;;5057701;28;20291;-67
2022/12/18 12:33:05;;;;;;;0.20;0.20;;;;;;;;;;5077787;28;20499;-67
2022/12/18 12:35:35;;;;;;;0.20;0.20;;;;;;;;;;5057804;28;20302;-67
2022/12/18 12:38:06;;;;;;;0.20;0.20;;;;;;;;;;5076796;28;20220;-67
2022/12/18 12:40:34;;;;;;;0.20;0.20;;;;;;;;;;5058343;28;20478;-67
2022/12/18 12:43:13;;;;;;;3.10;3.00;;;;;;;;;;5076796;28;20223;-67
2022/12/18 12:45:43;;;;;;;0.20;0.20;;;;;;;;;;5059163;28;20522;-67
2022/12/18 12:48:16;;;;;;;0.67;0.67;;;;;;;;;;5075979;28;20385;-67
2022/12/18 12:50:42;;;;;;;0.40;0.40;;;;;;;;;;5059000;28;20490;-68
2022/12/18 12:53:12;;;;;;;0.30;0.30;;;;;;;;;;5075401;28;20205;-67
2022/12/18 12:55:39;;;;;;;0.20;0.20;;;;;;;;;;5058474;28;20351;-68
2022/12/18 12:58:15;;;;;;;0.67;0.67;;;;;;;;;;5075995;28;20233;-68
2022/12/18 13:00:49;;;;;;;0.20;0.20;;;;;;;;;;5058439;28;20241;-67
2022/12/18 13:03:19;;;;;;;0.30;0.30;;;;;;;;;;5074824;28;20418;-68
2022/12/18 13:05:51;;;;;;;0.20;0.20;;;;;;;;;;5059271;28;20260;-67
2022/12/18 13:08:23;;;;;;;1.07;0.97;;;;;;;;;;5073789;28;20227;-68
2022/12/18 13:12:55;;;;;;;0.20;0.20;;;;;;;;;;5058375;28;20261;-68
2022/12/18 13:13:47;;;;;;;0.20;0.20;;;;;;;;;;5070697;28;20241;-68
2022/12/18 13:16:19;;;;;;;0.20;0.20;;;;;;;;;;5062453;28;20305;-67
2022/12/18 13:18:49;;;;;;;0.27;0.27;;;;;;;;;;5070648;28;20195;-67
2022/12/18 13:21:21;;;;;;;0.53;0.53;;;;;;;;;;5062767;28;20246;-67
2022/12/18 13:23:47;;;;;;;0.20;0.20;;;;;;;;;;5070203;28;20194;-67
2022/12/18 13:26:30;;;;;;;0.20;0.20;;;;;;;;;;5062508;28;20242;-67
2022/12/18 13:28:57;;;;;;;0.27;0.27;;;;;;;;;;5068958;28;20424;-67
2022/12/18 13:31:42;;;;;;;0.23;0.23;;;;;;;;;;5063567;28;20245;-68
2022/12/18 13:34:16;;;;;;;0.30;0.30;;;;;;;;;;5067097;28;20528;-67
2022/12/18 13:36:42;;;;;;;1.13;1.13;;;;;;;;;;5065698;28;20310;-67
2022/12/18 13:39:27;;;;;;;0.40;0.40;;;;;;;;;;5066890;28;20222;-67
2022/12/18 13:41:54;;;;;;;0.23;0.23;;;;;;;;;;5067607;28;20274;-65
2022/12/18 13:44:24;;;;;;;0.30;0.30;;;;;;;;;;5065445;28;20237;-67
2022/12/18 13:46:52;;;;;;;0.73;0.73;;;;;;;;;;5066918;28;20256;-66
2022/12/18 13:49:22;;;;;;;1.40;1.40;;;;;;;;;;5065761;28;20276;-68
2022/12/18 13:51:49;;;;;;;0.30;0.30;;;;;;;;;;5066454;28;20240;-65
2022/12/18 13:54:19;;;;;;;0.30;0.30;;;;;;;;;;5066101;28;20203;-67
2022/12/18 13:56:48;;;;;;;0.30;0.30;;;;;;;;;;5066273;28;20239;-66
2022/12/18 13:59:16;;;;;;;0.30;0.30;;;;;;;;;;5066001;28;20231;-76
2022/12/18 14:01:43;;;;;;;0.87;0.87;;;;;;;;;;5065678;28;20458;-75
2022/12/18 14:04:10;;;;;;;0.30;0.30;;;;;;;;;;5066557;28;20433;-75
2022/12/18 14:06:38;;;;;;;0.40;0.40;;;;;;;;;;5064916;28;20254;-75
2022/12/18 14:09:04;;;;;;;1.03;1.03;;;;;;;;;;5067418;28;20279;-74
2022/12/18 14:11:31;;;;;;;0.37;0.37;;;;;;;;;;5063854;28;20263;-74
2022/12/18 14:13:57;;;;;;;0.40;0.40;;;;;;;;;;5068076;28;20276;-74
2022/12/18 14:16:23;;;;;;;0.40;0.40;;;;;;;;;;5063056;28;20348;-74
2022/12/18 14:18:54;;;;;;;0.40;0.40;;;;;;;;;;5068966;28;20204;-72
2022/12/18 14:21:22;;;;;;;0.40;0.40;;;;;;;;;;5062752;28;20235;-71
2022/12/18 14:24:03;;;;;;;0.40;0.40;;;;;;;;;;5069252;28;20236;-73
2022/12/18 14:26:31;;;;;;;0.40;0.40;;;;;;;;;;5063763;28;20301;-71
2022/12/18 14:28:57;;;;;;;0.40;0.40;;;;;;;;;;5068061;28;20211;-72
2022/12/18 14:31:25;;;;;;;0.40;0.40;;;;;;;;;;5062865;28;20255;-69
2022/12/18 14:33:52;;;;;;;0.40;0.40;;;;;;;;;;5068673;28;20210;-70
2022/12/18 14:36:18;;;;;;;0.60;0.60;;;;;;;;;;5062285;28;20250;-69
2022/12/18 14:38:50;;;;;;;0.40;0.40;;;;;;;;;;5069638;28;20526;-68
2022/12/18 14:41:17;;;;;;;0.40;0.40;;;;;;;;;;5061900;28;20303;-68
2022/12/18 14:43:45;;;;;;;0.43;0.43;;;;;;;;;;5069618;28;20429;-68
2022/12/18 14:46:27;;;;;;;0.40;0.40;;;;;;;;;;5062247;28;20298;-69
2022/12/18 14:48:54;;;;;;;0.40;0.40;;;;;;;;;;5072487;28;20196;-68
2022/12/18 14:51:21;;;;;;;0.40;0.40;;;;;;;;;;5065930;28;20298;-68
2022/12/18 14:53:48;;;;;;;0.40;0.40;;;;;;;;;;5073103;28;20203;-68
2022/12/18 14:56:18;;;;;;;0.40;0.40;;;;;;;;;;5065267;28;20306;-69
2022/12/18 14:58:49;;;;;;;0.40;0.40;;;;;;;;;;5073193;28;20236;-69